sensor_id;sensor_type;location;lat;lon;timestamp;temperature;humidity
29575;DHT22;16507;51.046;6.406;2023-08-07T00:02:11;12.90;99.90
29575;DHT22;16507;51.046;6.406;2023-08-07T00:04:36;12.90;99.90
29575;DHT22;16507;51.046;6.406;2023-08-07T00:07:02;12.70;99.90
29575;DHT22;16507;51.046;6.406;2023-08-07T00:09:28;12.80;99.90
29575;DHT22;16507;51.046;6.406;2023-08-07T00:11:53;12.70;99.90
29575;DHT22;16507;51.046;6.406;2023-08-07T00:14:19;12.70;99.90
29575;DHT22;16507;51.046;6.406;2023-08-07T00:16:44;12.70;99.90
29575;DHT22;16507;51.046;6.406;2023-08-07T00:19:11;12.60;99.90
29575;DHT22;16507;51.046;6.406;2023-08-07T00:21:36;12.60;99.90
29575;DHT22;16507;51.046;6.406;2023-08-07T00:24:03;12.50;99.90
29575;DHT22;16507;51.046;6.406;2023-08-07T00:26:29;12.50;99.90
29575;DHT22;16507;51.046;6.406;2023-08-07T00:28:55;12.60;99.90
29575;DHT22;16507;51.046;6.406;2023-08-07T00:31:21;12.60;99.90
29575;DHT22;16507;51.046;6.406;2023-08-07T00:33:46;12.50;99.90
29575;DHT22;16507;51.046;6.406;2023-08-07T00:36:17;12.60;99.90
29575;DHT22;16507;51.046;6.406;2023-08-07T00:38:42;12.50;99.90
29575;DHT22;16507;51.046;6.406;2023-08-07T00:41:08;12.60;99.90
29575;DHT22;16507;51.046;6.406;2023-08-07T00:43:35;12.50;99.90
29575;DHT22;16507;51.046;6.406;2023-08-07T00:46:01;12.60;99.90
29575;DHT22;16507;51.046;6.406;2023-08-07T00:48:27;12.60;99.90
29575;DHT22;16507;51.046;6.406;2023-08-07T00:50:54;12.50;99.90
29575;DHT22;16507;51.046;6.406;2023-08-07T00:53:20;12.50;99.90
29575;DHT22;16507;51.046;6.406;2023-08-07T00:55:46;12.50;99.90
29575;DHT22;16507;51.046;6.406;2023-08-07T00:58:12;12.50;99.90
29575;DHT22;16507;51.046;6.406;2023-08-07T01:00:38;12.60;99.90
29575;DHT22;16507;51.046;6.406;2023-08-07T01:03:07;12.50;99.90
29575;DHT22;16507;51.046;6.406;2023-08-07T01:05:33;12.70;99.90
29575;DHT22;16507;51.046;6.406;2023-08-07T01:07:59;12.70;99.90
29575;DHT22;16507;51.046;6.406;2023-08-07T01:10:35;12.80;99.90
29575;DHT22;16507;51.046;6.406;2023-08-07T01:13:34;12.80;99.90
29575;DHT22;16507;51.046;6.406;2023-08-07T01:16:08;12.80;99.90
29575;DHT22;16507;51.046;6.406;2023-08-07T01:18:35;12.80;99.90
29575;DHT22;16507;51.046;6.406;2023-08-07T01:21:03;12.90;99.90
29575;DHT22;16507;51.046;6.406;2023-08-07T01:23:31;12.90;99.90
29575;DHT22;16507;51.046;6.406;2023-08-07T01:25:57;12.90;99.90
29575;DHT22;16507;51.046;6.406;2023-08-07T01:28:39;12.90;99.90
29575;DHT22;16507;51.046;6.406;2023-08-07T01:31:11;13.00;99.90
29575;DHT22;16507;51.046;6.406;2023-08-07T01:33:56;13.00;99.90
29575;DHT22;16507;51.046;6.406;2023-08-07T01:36:24;12.90;99.90
29575;DHT22;16507;51.046;6.406;2023-08-07T01:38:53;13.00;99.90
29575;DHT22;16507;51.046;6.406;2023-08-07T01:41:19;13.00;99.90
29575;DHT22;16507;51.046;6.406;2023-08-07T01:43:45;13.00;99.90
29575;DHT22;16507;51.046;6.406;2023-08-07T01:46:11;13.00;99.90
29575;DHT22;16507;51.046;6.406;2023-08-07T01:48:37;13.00;99.90
29575;DHT22;16507;51.046;6.406;2023-08-07T01:51:02;13.00;99.90
29575;DHT22;16507;51.046;6.406;2023-08-07T01:53:28;13.00;99.90
29575;DHT22;16507;51.046;6.406;2023-08-07T01:55:54;13.00;99.90
29575;DHT22;16507;51.046;6.406;2023-08-07T01:58:19;13.00;99.90
29575;DHT22;16507;51.046;6.406;2023-08-07T02:00:48;13.00;99.90
29575;DHT22;16507;51.046;6.406;2023-08-07T02:03:14;13.00;99.90
29575;DHT22;16507;51.046;6.406;2023-08-07T02:05:40;13.00;99.90
29575;DHT22;16507;51.046;6.406;2023-08-07T02:08:05;13.10;99.90
29575;DHT22;16507;51.046;6.406;2023-08-07T02:10:31;13.10;99.90
29575;DHT22;16507;51.046;6.406;2023-08-07T02:12:57;13.10;99.90
29575;DHT22;16507;51.046;6.406;2023-08-07T02:15:24;13.10;99.90
29575;DHT22;16507;51.046;6.406;2023-08-07T02:17:50;13.10;99.90
29575;DHT22;16507;51.046;6.406;2023-08-07T02:20:16;13.10;99.90
29575;DHT22;16507;51.046;6.406;2023-08-07T02:22:41;13.10;99.90
29575;DHT22;16507;51.046;6.406;2023-08-07T02:25:07;13.10;99.90
29575;DHT22;16507;51.046;6.406;2023-08-07T02:27:33;13.10;99.90
29575;DHT22;16507;51.046;6.406;2023-08-07T02:29:58;13.10;99.90
29575;DHT22;16507;51.046;6.406;2023-08-07T02:32:24;13.00;99.90
29575;DHT22;16507;51.046;6.406;2023-08-07T02:34:50;13.10;99.90
29575;DHT22;16507;51.046;6.406;2023-08-07T02:37:15;13.10;99.90
29575;DHT22;16507;51.046;6.406;2023-08-07T02:39:42;13.00;99.90
29575;DHT22;16507;51.046;6.406;2023-08-07T02:42:07;13.00;99.90
29575;DHT22;16507;51.046;6.406;2023-08-07T02:44:33;13.00;99.90
29575;DHT22;16507;51.046;6.406;2023-08-07T02:46:59;13.00;99.90
29575;DHT22;16507;51.046;6.406;2023-08-07T02:49:24;13.00;99.90
29575;DHT22;16507;51.046;6.406;2023-08-07T02:51:50;13.00;99.90
29575;DHT22;16507;51.046;6.406;2023-08-07T02:54:15;13.00;99.90
29575;DHT22;16507;51.046;6.406;2023-08-07T02:56:41;13.00;99.90
29575;DHT22;16507;51.046;6.406;2023-08-07T02:59:07;13.00;99.90
29575;DHT22;16507;51.046;6.406;2023-08-07T03:01:33;13.00;99.90
29575;DHT22;16507;51.046;6.406;2023-08-07T03:03:58;12.90;99.90
29575;DHT22;16507;51.046;6.406;2023-08-07T03:06:24;12.90;99.90
29575;DHT22;16507;51.046;6.406;2023-08-07T03:08:50;12.80;99.90
29575;DHT22;16507;51.046;6.406;2023-08-07T03:11:15;12.90;99.90
29575;DHT22;16507;51.046;6.406;2023-08-07T03:13:41;12.90;99.90
29575;DHT22;16507;51.046;6.406;2023-08-07T03:16:07;12.90;99.90
29575;DHT22;16507;51.046;6.406;2023-08-07T03:18:34;12.90;99.90
29575;DHT22;16507;51.046;6.406;2023-08-07T03:20:59;12.90;99.90
29575;DHT22;16507;51.046;6.406;2023-08-07T03:23:26;12.90;99.90
29575;DHT22;16507;51.046;6.406;2023-08-07T03:26:05;12.70;99.90
29575;DHT22;16507;51.046;6.406;2023-08-07T03:28:31;12.60;99.90
29575;DHT22;16507;51.046;6.406;2023-08-07T03:30:57;12.60;99.90
29575;DHT22;16507;51.046;6.406;2023-08-07T03:33:23;12.50;99.90
29575;DHT22;16507;51.046;6.406;2023-08-07T03:35:48;12.50;99.90
29575;DHT22;16507;51.046;6.406;2023-08-07T03:38:14;12.40;99.90
29575;DHT22;16507;51.046;6.406;2023-08-07T03:40:40;12.50;99.90
29575;DHT22;16507;51.046;6.406;2023-08-07T03:43:05;12.40;99.90
29575;DHT22;16507;51.046;6.406;2023-08-07T03:45:34;12.50;99.90
29575;DHT22;16507;51.046;6.406;2023-08-07T03:47:59;12.60;99.90
29575;DHT22;16507;51.046;6.406;2023-08-07T03:50:25;12.60;99.90
29575;DHT22;16507;51.046;6.406;2023-08-07T03:52:50;12.60;99.90
29575;DHT22;16507;51.046;6.406;2023-08-07T03:55:16;12.60;99.90
29575;DHT22;16507;51.046;6.406;2023-08-07T03:57:42;12.60;99.90
29575;DHT22;16507;51.046;6.406;2023-08-07T04:00:08;12.50;99.90
29575;DHT22;16507;51.046;6.406;2023-08-07T04:02:34;12.60;99.90
29575;DHT22;16507;51.046;6.406;2023-08-07T04:04:59;12.60;99.90
29575;DHT22;16507;51.046;6.406;2023-08-07T04:07:25;12.60;99.90
29575;DHT22;16507;51.046;6.406;2023-08-07T04:09:50;12.50;99.90
29575;DHT22;16507;51.046;6.406;2023-08-07T04:12:16;12.50;99.90
29575;DHT22;16507;51.046;6.406;2023-08-07T04:14:42;12.50;99.90
29575;DHT22;16507;51.046;6.406;2023-08-07T04:17:07;12.60;99.90
29575;DHT22;16507;51.046;6.406;2023-08-07T04:19:33;12.60;99.90
29575;DHT22;16507;51.046;6.406;2023-08-07T04:21:58;12.60;99.90
29575;DHT22;16507;51.046;6.406;2023-08-07T04:24:24;12.70;99.90
29575;DHT22;16507;51.046;6.406;2023-08-07T04:26:50;12.80;99.90
29575;DHT22;16507;51.046;6.406;2023-08-07T04:29:16;12.70;99.90
29575;DHT22;16507;51.046;6.406;2023-08-07T04:31:41;12.80;99.90
29575;DHT22;16507;51.046;6.406;2023-08-07T04:34:07;12.70;99.90
29575;DHT22;16507;51.046;6.406;2023-08-07T04:36:32;12.80;99.90
29575;DHT22;16507;51.046;6.406;2023-08-07T04:38:58;12.90;99.90
29575;DHT22;16507;51.046;6.406;2023-08-07T04:41:24;12.90;99.90
29575;DHT22;16507;51.046;6.406;2023-08-07T04:43:50;12.90;99.90
29575;DHT22;16507;51.046;6.406;2023-08-07T04:46:15;12.80;99.90
29575;DHT22;16507;51.046;6.406;2023-08-07T04:48:41;12.90;99.90
29575;DHT22;16507;51.046;6.406;2023-08-07T04:51:07;12.90;99.90
29575;DHT22;16507;51.046;6.406;2023-08-07T04:53:32;12.90;99.90
29575;DHT22;16507;51.046;6.406;2023-08-07T04:56:01;12.90;99.90
29575;DHT22;16507;51.046;6.406;2023-08-07T04:58:26;13.00;99.90
29575;DHT22;16507;51.046;6.406;2023-08-07T05:00:56;13.00;99.90
29575;DHT22;16507;51.046;6.406;2023-08-07T05:03:22;12.90;99.90
29575;DHT22;16507;51.046;6.406;2023-08-07T05:05:48;13.00;99.90
29575;DHT22;16507;51.046;6.406;2023-08-07T05:08:13;13.00;99.90
29575;DHT22;16507;51.046;6.406;2023-08-07T05:10:39;13.00;99.90
29575;DHT22;16507;51.046;6.406;2023-08-07T05:13:04;13.00;99.90
29575;DHT22;16507;51.046;6.406;2023-08-07T05:15:30;13.00;99.90
29575;DHT22;16507;51.046;6.406;2023-08-07T05:17:56;13.10;99.90
29575;DHT22;16507;51.046;6.406;2023-08-07T05:20:22;13.20;99.90
29575;DHT22;16507;51.046;6.406;2023-08-07T05:22:48;13.20;99.90
29575;DHT22;16507;51.046;6.406;2023-08-07T05:25:14;13.20;99.90
29575;DHT22;16507;51.046;6.406;2023-08-07T05:27:47;13.20;99.90
29575;DHT22;16507;51.046;6.406;2023-08-07T05:30:13;13.20;99.90
29575;DHT22;16507;51.046;6.406;2023-08-07T05:32:39;13.10;99.90
29575;DHT22;16507;51.046;6.406;2023-08-07T05:35:05;13.20;99.90
29575;DHT22;16507;51.046;6.406;2023-08-07T05:37:33;13.20;99.90
29575;DHT22;16507;51.046;6.406;2023-08-07T05:39:58;13.20;99.90
29575;DHT22;16507;51.046;6.406;2023-08-07T05:42:24;13.20;99.90
29575;DHT22;16507;51.046;6.406;2023-08-07T05:44:50;13.10;99.90
29575;DHT22;16507;51.046;6.406;2023-08-07T05:47:16;13.10;99.90
29575;DHT22;16507;51.046;6.406;2023-08-07T05:49:42;13.20;99.90
29575;DHT22;16507;51.046;6.406;2023-08-07T05:52:08;13.10;99.90
29575;DHT22;16507;51.046;6.406;2023-08-07T05:54:33;13.20;99.90
29575;DHT22;16507;51.046;6.406;2023-08-07T05:56:59;13.10;99.90
29575;DHT22;16507;51.046;6.406;2023-08-07T05:59:25;13.10;99.90
29575;DHT22;16507;51.046;6.406;2023-08-07T06:01:51;13.10;99.90
29575;DHT22;16507;51.046;6.406;2023-08-07T06:04:17;13.10;99.90
29575;DHT22;16507;51.046;6.406;2023-08-07T06:06:42;13.20;99.90
29575;DHT22;16507;51.046;6.406;2023-08-07T06:09:09;13.20;99.90
29575;DHT22;16507;51.046;6.406;2023-08-07T06:11:35;13.20;99.90
29575;DHT22;16507;51.046;6.406;2023-08-07T06:14:01;13.20;99.90
29575;DHT22;16507;51.046;6.406;2023-08-07T06:16:27;13.20;99.90
29575;DHT22;16507;51.046;6.406;2023-08-07T06:18:53;13.20;99.90
29575;DHT22;16507;51.046;6.406;2023-08-07T06:21:18;13.20;99.90
29575;DHT22;16507;51.046;6.406;2023-08-07T06:23:45;13.20;99.90
29575;DHT22;16507;51.046;6.406;2023-08-07T06:26:11;13.20;99.90
29575;DHT22;16507;51.046;6.406;2023-08-07T06:28:36;13.20;99.90
29575;DHT22;16507;51.046;6.406;2023-08-07T06:31:07;13.20;99.90
29575;DHT22;16507;51.046;6.406;2023-08-07T06:33:34;13.20;99.90
29575;DHT22;16507;51.046;6.406;2023-08-07T06:36:00;13.20;99.90
29575;DHT22;16507;51.046;6.406;2023-08-07T06:38:26;13.20;99.90
29575;DHT22;16507;51.046;6.406;2023-08-07T06:40:51;13.10;99.90
29575;DHT22;16507;51.046;6.406;2023-08-07T06:43:17;13.10;99.90
29575;DHT22;16507;51.046;6.406;2023-08-07T06:45:45;13.00;99.90
29575;DHT22;16507;51.046;6.406;2023-08-07T06:48:11;13.00;99.90
29575;DHT22;16507;51.046;6.406;2023-08-07T06:50:37;12.90;99.90
29575;DHT22;16507;51.046;6.406;2023-08-07T06:53:03;13.00;99.90
29575;DHT22;16507;51.046;6.406;2023-08-07T06:55:28;12.90;99.90
29575;DHT22;16507;51.046;6.406;2023-08-07T06:57:54;12.90;99.90
29575;DHT22;16507;51.046;6.406;2023-08-07T07:00:19;12.90;99.90
29575;DHT22;16507;51.046;6.406;2023-08-07T07:02:45;12.90;99.90
29575;DHT22;16507;51.046;6.406;2023-08-07T07:05:11;13.00;99.90
29575;DHT22;16507;51.046;6.406;2023-08-07T07:07:36;13.20;99.90
29575;DHT22;16507;51.046;6.406;2023-08-07T07:10:02;13.20;99.90
29575;DHT22;16507;51.046;6.406;2023-08-07T07:12:28;13.30;99.90
29575;DHT22;16507;51.046;6.406;2023-08-07T07:14:53;13.30;99.90
29575;DHT22;16507;51.046;6.406;2023-08-07T07:17:19;13.40;99.90
29575;DHT22;16507;51.046;6.406;2023-08-07T07:19:45;13.40;99.90
29575;DHT22;16507;51.046;6.406;2023-08-07T07:22:10;13.40;99.90
29575;DHT22;16507;51.046;6.406;2023-08-07T07:24:36;13.40;99.90
29575;DHT22;16507;51.046;6.406;2023-08-07T07:27:02;13.50;99.90
29575;DHT22;16507;51.046;6.406;2023-08-07T07:29:28;13.50;99.90
29575;DHT22;16507;51.046;6.406;2023-08-07T07:31:54;13.60;99.90
29575;DHT22;16507;51.046;6.406;2023-08-07T07:34:21;13.70;99.90
29575;DHT22;16507;51.046;6.406;2023-08-07T07:36:46;13.80;99.90
29575;DHT22;16507;51.046;6.406;2023-08-07T07:39:12;13.80;99.90
29575;DHT22;16507;51.046;6.406;2023-08-07T07:41:38;13.90;99.90
29575;DHT22;16507;51.046;6.406;2023-08-07T07:44:04;13.90;99.90
29575;DHT22;16507;51.046;6.406;2023-08-07T07:46:29;14.10;99.90
29575;DHT22;16507;51.046;6.406;2023-08-07T07:48:57;14.10;99.90
29575;DHT22;16507;51.046;6.406;2023-08-07T07:51:22;14.30;99.90
29575;DHT22;16507;51.046;6.406;2023-08-07T07:53:49;14.30;99.90
29575;DHT22;16507;51.046;6.406;2023-08-07T07:56:14;14.30;99.90
29575;DHT22;16507;51.046;6.406;2023-08-07T07:58:40;14.40;99.90
29575;DHT22;16507;51.046;6.406;2023-08-07T08:01:07;14.40;99.90
29575;DHT22;16507;51.046;6.406;2023-08-07T08:03:33;14.50;99.90
29575;DHT22;16507;51.046;6.406;2023-08-07T08:05:59;14.50;99.90
29575;DHT22;16507;51.046;6.406;2023-08-07T08:08:32;14.50;99.90
29575;DHT22;16507;51.046;6.406;2023-08-07T08:10:57;14.60;99.90
29575;DHT22;16507;51.046;6.406;2023-08-07T08:13:23;14.60;99.90
29575;DHT22;16507;51.046;6.406;2023-08-07T08:15:50;14.60;99.90
29575;DHT22;16507;51.046;6.406;2023-08-07T08:18:16;14.70;99.90
29575;DHT22;16507;51.046;6.406;2023-08-07T08:20:42;14.80;99.90
29575;DHT22;16507;51.046;6.406;2023-08-07T08:23:07;14.80;99.90
29575;DHT22;16507;51.046;6.406;2023-08-07T08:25:33;14.80;99.90
29575;DHT22;16507;51.046;6.406;2023-08-07T08:27:59;14.90;99.90
29575;DHT22;16507;51.046;6.406;2023-08-07T08:30:26;15.00;99.90
29575;DHT22;16507;51.046;6.406;2023-08-07T08:32:51;15.20;99.90
29575;DHT22;16507;51.046;6.406;2023-08-07T08:35:17;15.40;99.90
29575;DHT22;16507;51.046;6.406;2023-08-07T08:37:43;15.50;99.90
29575;DHT22;16507;51.046;6.406;2023-08-07T08:40:09;15.60;99.90
29575;DHT22;16507;51.046;6.406;2023-08-07T08:42:43;15.50;99.90
29575;DHT22;16507;51.046;6.406;2023-08-07T08:45:15;15.50;99.90
29575;DHT22;16507;51.046;6.406;2023-08-07T08:47:42;15.50;99.90
29575;DHT22;16507;51.046;6.406;2023-08-07T08:50:13;15.50;99.90
29575;DHT22;16507;51.046;6.406;2023-08-07T08:52:42;15.40;99.90
29575;DHT22;16507;51.046;6.406;2023-08-07T08:55:09;15.10;99.90
29575;DHT22;16507;51.046;6.406;2023-08-07T08:57:37;15.00;99.90
29575;DHT22;16507;51.046;6.406;2023-08-07T09:00:05;15.00;99.90
29575;DHT22;16507;51.046;6.406;2023-08-07T09:02:46;15.00;99.90
29575;DHT22;16507;51.046;6.406;2023-08-07T09:05:14;14.90;99.90
29575;DHT22;16507;51.046;6.406;2023-08-07T09:07:40;14.80;99.90
29575;DHT22;16507;51.046;6.406;2023-08-07T09:10:06;14.50;99.90
29575;DHT22;16507;51.046;6.406;2023-08-07T09:12:34;14.50;99.90
29575;DHT22;16507;51.046;6.406;2023-08-07T09:15:02;14.50;99.90
29575;DHT22;16507;51.046;6.406;2023-08-07T09:17:33;14.60;99.90
29575;DHT22;16507;51.046;6.406;2023-08-07T09:20:00;14.80;99.90
29575;DHT22;16507;51.046;6.406;2023-08-07T09:22:26;15.00;99.90
29575;DHT22;16507;51.046;6.406;2023-08-07T09:24:51;15.20;99.90
29575;DHT22;16507;51.046;6.406;2023-08-07T09:27:18;15.50;99.90
29575;DHT22;16507;51.046;6.406;2023-08-07T09:29:43;15.70;99.90
29575;DHT22;16507;51.046;6.406;2023-08-07T09:32:12;16.10;99.90
29575;DHT22;16507;51.046;6.406;2023-08-07T09:34:41;16.50;99.90
29575;DHT22;16507;51.046;6.406;2023-08-07T09:37:10;16.50;99.90
29575;DHT22;16507;51.046;6.406;2023-08-07T09:39:36;16.90;99.90
29575;DHT22;16507;51.046;6.406;2023-08-07T09:42:03;17.30;99.90
29575;DHT22;16507;51.046;6.406;2023-08-07T09:44:36;17.30;99.90
29575;DHT22;16507;51.046;6.406;2023-08-07T09:47:14;17.40;99.90
29575;DHT22;16507;51.046;6.406;2023-08-07T09:49:41;17.20;99.90
29575;DHT22;16507;51.046;6.406;2023-08-07T09:52:08;17.40;99.90
29575;DHT22;16507;51.046;6.406;2023-08-07T09:54:35;17.40;99.90
29575;DHT22;16507;51.046;6.406;2023-08-07T09:57:04;17.30;99.90
29575;DHT22;16507;51.046;6.406;2023-08-07T09:59:32;17.20;99.90
29575;DHT22;16507;51.046;6.406;2023-08-07T10:02:00;17.60;99.90
29575;DHT22;16507;51.046;6.406;2023-08-07T10:04:26;17.70;99.90
29575;DHT22;16507;51.046;6.406;2023-08-07T10:06:53;17.60;99.90
29575;DHT22;16507;51.046;6.406;2023-08-07T10:09:18;17.50;99.90
29575;DHT22;16507;51.046;6.406;2023-08-07T10:11:44;17.50;99.90
29575;DHT22;16507;51.046;6.406;2023-08-07T10:14:12;17.70;99.90
29575;DHT22;16507;51.046;6.406;2023-08-07T10:16:40;18.00;99.90
29575;DHT22;16507;51.046;6.406;2023-08-07T10:19:06;17.70;99.90
29575;DHT22;16507;51.046;6.406;2023-08-07T10:21:36;17.30;99.90
29575;DHT22;16507;51.046;6.406;2023-08-07T10:24:08;17.10;99.90
29575;DHT22;16507;51.046;6.406;2023-08-07T10:26:36;17.20;99.90
29575;DHT22;16507;51.046;6.406;2023-08-07T10:29:05;17.10;99.90
29575;DHT22;16507;51.046;6.406;2023-08-07T10:31:33;17.00;99.90
29575;DHT22;16507;51.046;6.406;2023-08-07T10:34:01;17.20;99.90
29575;DHT22;16507;51.046;6.406;2023-08-07T10:36:34;17.50;99.90
29575;DHT22;16507;51.046;6.406;2023-08-07T10:41:42;17.80;99.90
29575;DHT22;16507;51.046;6.406;2023-08-07T10:44:23;17.80;99.90
29575;DHT22;16507;51.046;6.406;2023-08-07T10:46:53;17.80;99.90
29575;DHT22;16507;51.046;6.406;2023-08-07T10:49:39;18.20;99.90
29575;DHT22;16507;51.046;6.406;2023-08-07T10:52:10;18.50;97.00
29575;DHT22;16507;51.046;6.406;2023-08-07T10:54:41;18.70;99.90
29575;DHT22;16507;51.046;6.406;2023-08-07T10:57:11;18.60;99.90
29575;DHT22;16507;51.046;6.406;2023-08-07T10:59:38;18.50;99.90
29575;DHT22;16507;51.046;6.406;2023-08-07T11:02:08;18.00;99.90
29575;DHT22;16507;51.046;6.406;2023-08-07T11:04:37;17.50;99.90
29575;DHT22;16507;51.046;6.406;2023-08-07T11:07:02;17.90;99.90
29575;DHT22;16507;51.046;6.406;2023-08-07T11:09:28;18.30;90.40
29575;DHT22;16507;51.046;6.406;2023-08-07T11:11:54;18.60;61.50
29575;DHT22;16507;51.046;6.406;2023-08-07T11:14:20;18.50;70.30
29575;DHT22;16507;51.046;6.406;2023-08-07T11:16:47;18.20;93.90
29575;DHT22;16507;51.046;6.406;2023-08-07T11:19:14;18.50;64.80
29575;DHT22;16507;51.046;6.406;2023-08-07T11:21:41;18.50;52.70
29575;DHT22;16507;51.046;6.406;2023-08-07T11:24:07;18.60;61.50
29575;DHT22;16507;51.046;6.406;2023-08-07T11:26:33;18.70;55.30
29575;DHT22;16507;51.046;6.406;2023-08-07T11:28:59;18.80;48.20
29575;DHT22;16507;51.046;6.406;2023-08-07T11:31:25;18.50;69.00
29575;DHT22;16507;51.046;6.406;2023-08-07T11:33:51;18.70;54.20
29575;DHT22;16507;51.046;6.406;2023-08-07T11:36:17;18.70;46.80
29575;DHT22;16507;51.046;6.406;2023-08-07T11:38:44;18.50;45.80
29575;DHT22;16507;51.046;6.406;2023-08-07T11:41:14;18.60;46.40
29575;DHT22;16507;51.046;6.406;2023-08-07T11:43:40;19.00;40.70
29575;DHT22;16507;51.046;6.406;2023-08-07T11:46:08;19.20;43.20
29575;DHT22;16507;51.046;6.406;2023-08-07T11:48:36;19.50;41.80
29575;DHT22;16507;51.046;6.406;2023-08-07T11:51:02;19.40;38.80
29575;DHT22;16507;51.046;6.406;2023-08-07T11:53:31;19.00;42.00
29575;DHT22;16507;51.046;6.406;2023-08-07T11:56:02;18.90;42.40
29575;DHT22;16507;51.046;6.406;2023-08-07T11:58:34;18.80;49.40
29575;DHT22;16507;51.046;6.406;2023-08-07T12:01:09;19.10;50.40
29575;DHT22;16507;51.046;6.406;2023-08-07T12:03:37;19.00;47.60
29575;DHT22;16507;51.046;6.406;2023-08-07T12:06:05;18.90;58.80
29575;DHT22;16507;51.046;6.406;2023-08-07T12:08:40;18.60;56.30
29575;DHT22;16507;51.046;6.406;2023-08-07T12:11:08;18.60;55.20
29575;DHT22;16507;51.046;6.406;2023-08-07T12:13:41;19.00;57.20
29575;DHT22;16507;51.046;6.406;2023-08-07T12:16:07;19.30;58.80
29575;DHT22;16507;51.046;6.406;2023-08-07T12:18:34;19.20;49.50
29575;DHT22;16507;51.046;6.406;2023-08-07T12:21:02;19.40;56.70
29575;DHT22;16507;51.046;6.406;2023-08-07T12:23:32;19.40;44.50
29575;DHT22;16507;51.046;6.406;2023-08-07T12:25:58;19.30;44.10
29575;DHT22;16507;51.046;6.406;2023-08-07T12:28:23;19.40;47.10
29575;DHT22;16507;51.046;6.406;2023-08-07T12:30:50;19.10;52.90
29575;DHT22;16507;51.046;6.406;2023-08-07T12:33:16;18.70;61.80
29575;DHT22;16507;51.046;6.406;2023-08-07T12:35:42;18.40;74.50
29575;DHT22;16507;51.046;6.406;2023-08-07T12:38:08;18.60;95.30
29575;DHT22;16507;51.046;6.406;2023-08-07T12:40:35;19.00;96.00
29575;DHT22;16507;51.046;6.406;2023-08-07T12:43:07;19.20;94.50
29575;DHT22;16507;51.046;6.406;2023-08-07T12:45:33;18.80;57.20
29575;DHT22;16507;51.046;6.406;2023-08-07T12:47:59;18.70;63.80
29575;DHT22;16507;51.046;6.406;2023-08-07T12:50:26;19.10;74.60
29575;DHT22;16507;51.046;6.406;2023-08-07T12:52:51;19.60;57.80
29575;DHT22;16507;51.046;6.406;2023-08-07T12:55:17;19.40;54.80
29575;DHT22;16507;51.046;6.406;2023-08-07T12:57:43;19.00;63.40
29575;DHT22;16507;51.046;6.406;2023-08-07T13:00:10;18.80;99.90
29575;DHT22;16507;51.046;6.406;2023-08-07T13:02:39;19.00;96.00
29575;DHT22;16507;51.046;6.406;2023-08-07T13:05:05;19.80;63.90
29575;DHT22;16507;51.046;6.406;2023-08-07T13:07:31;19.50;58.30
29575;DHT22;16507;51.046;6.406;2023-08-07T13:09:56;19.10;69.40
29575;DHT22;16507;51.046;6.406;2023-08-07T13:12:22;18.50;94.30
29575;DHT22;16507;51.046;6.406;2023-08-07T13:14:48;18.20;99.90
29575;DHT22;16507;51.046;6.406;2023-08-07T13:17:14;18.00;99.90
29575;DHT22;16507;51.046;6.406;2023-08-07T13:19:39;18.00;99.90
29575;DHT22;16507;51.046;6.406;2023-08-07T13:22:05;19.50;99.90
29575;DHT22;16507;51.046;6.406;2023-08-07T13:24:30;20.30;67.60
29575;DHT22;16507;51.046;6.406;2023-08-07T13:26:56;20.60;61.90
29575;DHT22;16507;51.046;6.406;2023-08-07T13:29:21;20.50;64.50
29575;DHT22;16507;51.046;6.406;2023-08-07T13:31:47;19.80;59.30
29575;DHT22;16507;51.046;6.406;2023-08-07T13:34:13;19.00;67.10
29575;DHT22;16507;51.046;6.406;2023-08-07T13:36:39;18.70;79.90
29575;DHT22;16507;51.046;6.406;2023-08-07T13:39:05;18.70;90.00
29575;DHT22;16507;51.046;6.406;2023-08-07T13:41:31;19.00;81.90
29575;DHT22;16507;51.046;6.406;2023-08-07T13:44:00;18.90;70.20
29575;DHT22;16507;51.046;6.406;2023-08-07T13:46:27;18.70;60.80
29575;DHT22;16507;51.046;6.406;2023-08-07T13:48:53;18.30;68.10
29575;DHT22;16507;51.046;6.406;2023-08-07T13:51:19;16.80;99.90
29575;DHT22;16507;51.046;6.406;2023-08-07T13:53:44;16.00;99.90
29575;DHT22;16507;51.046;6.406;2023-08-07T13:56:10;16.50;99.90
29575;DHT22;16507;51.046;6.406;2023-08-07T13:58:40;16.70;99.90
29575;DHT22;16507;51.046;6.406;2023-08-07T14:01:06;16.90;99.90
29575;DHT22;16507;51.046;6.406;2023-08-07T14:03:32;17.00;99.90
29575;DHT22;16507;51.046;6.406;2023-08-07T14:05:57;17.20;99.90
29575;DHT22;16507;51.046;6.406;2023-08-07T14:08:23;17.60;99.90
29575;DHT22;16507;51.046;6.406;2023-08-07T14:10:49;17.70;99.90
29575;DHT22;16507;51.046;6.406;2023-08-07T14:13:15;17.70;99.90
29575;DHT22;16507;51.046;6.406;2023-08-07T14:15:41;17.60;99.90
29575;DHT22;16507;51.046;6.406;2023-08-07T14:18:06;17.60;99.90
29575;DHT22;16507;51.046;6.406;2023-08-07T14:20:32;18.00;99.90
29575;DHT22;16507;51.046;6.406;2023-08-07T14:22:58;18.30;99.90
29575;DHT22;16507;51.046;6.406;2023-08-07T14:25:24;18.70;99.90
29575;DHT22;16507;51.046;6.406;2023-08-07T14:27:50;19.00;99.90
29575;DHT22;16507;51.046;6.406;2023-08-07T14:30:16;19.10;97.10
29575;DHT22;16507;51.046;6.406;2023-08-07T14:32:41;19.30;99.90
29575;DHT22;16507;51.046;6.406;2023-08-07T14:35:12;19.10;99.90
29575;DHT22;16507;51.046;6.406;2023-08-07T14:37:39;18.90;92.40
29575;DHT22;16507;51.046;6.406;2023-08-07T14:40:05;18.80;86.00
29575;DHT22;16507;51.046;6.406;2023-08-07T14:42:31;19.10;84.40
29575;DHT22;16507;51.046;6.406;2023-08-07T14:44:56;20.10;79.70
29575;DHT22;16507;51.046;6.406;2023-08-07T14:47:22;20.60;65.40
29575;DHT22;16507;51.046;6.406;2023-08-07T14:49:47;20.50;57.10
29575;DHT22;16507;51.046;6.406;2023-08-07T14:52:13;20.10;57.60
29575;DHT22;16507;51.046;6.406;2023-08-07T14:54:39;19.80;57.30
29575;DHT22;16507;51.046;6.406;2023-08-07T14:57:04;19.80;62.30
29575;DHT22;16507;51.046;6.406;2023-08-07T14:59:30;19.80;60.00
29575;DHT22;16507;51.046;6.406;2023-08-07T15:01:56;19.60;62.00
29575;DHT22;16507;51.046;6.406;2023-08-07T15:04:21;19.30;61.50
29575;DHT22;16507;51.046;6.406;2023-08-07T15:06:47;19.10;62.40
29575;DHT22;16507;51.046;6.406;2023-08-07T15:09:14;19.10;61.20
29575;DHT22;16507;51.046;6.406;2023-08-07T15:11:40;19.20;64.30
29575;DHT22;16507;51.046;6.406;2023-08-07T15:14:06;19.20;72.50
29575;DHT22;16507;51.046;6.406;2023-08-07T15:16:31;19.70;86.10
29575;DHT22;16507;51.046;6.406;2023-08-07T15:18:57;20.30;78.40
29575;DHT22;16507;51.046;6.406;2023-08-07T15:21:23;20.30;80.40
29575;DHT22;16507;51.046;6.406;2023-08-07T15:23:49;19.80;78.60
29575;DHT22;16507;51.046;6.406;2023-08-07T15:26:14;19.60;90.50
29575;DHT22;16507;51.046;6.406;2023-08-07T15:28:40;19.60;83.00
29575;DHT22;16507;51.046;6.406;2023-08-07T15:31:06;19.40;77.30